createdAt,value
2022-08-11T00:01:59.885Z,99954.15
2022-08-11T00:04:35.810Z,99953.48
2022-08-11T00:07:06.260Z,99952.30
2022-08-11T00:09:39.619Z,99956.21
2022-08-11T00:12:16.121Z,99952.33
2022-08-11T00:14:44.710Z,99952.61
2022-08-11T00:17:14.880Z,99953.98
2022-08-11T00:20:12.373Z,99951.35
2022-08-11T00:22:34.822Z,99952.04
2022-08-11T00:25:11.211Z,99956.83
2022-08-11T00:27:40.576Z,99953.84
2022-08-11T00:30:10.866Z,99957.39
2022-08-11T00:32:41.197Z,99955.45
2022-08-11T00:35:51.272Z,99956.30
2022-08-11T00:38:01.485Z,99957.17
2022-08-11T00:41:11.646Z,99957.34
2022-08-11T00:43:57.913Z,99955.75
2022-08-11T00:46:25.440Z,99958.35
2022-08-11T00:49:12.121Z,99955.00
2022-08-11T00:52:06.080Z,99957.55
2022-08-11T00:55:03.679Z,99955.20
2022-08-11T00:58:02.782Z,99958.00
2022-08-11T01:00:35.211Z,99955.02
2022-08-11T01:03:08.057Z,99954.27
2022-08-11T01:06:13.229Z,99955.96
2022-08-11T01:08:55.446Z,99954.46
2022-08-11T01:11:55.462Z,99958.11
2022-08-11T01:14:37.068Z,99962.44
2022-08-11T01:17:26.466Z,99960.94
2022-08-11T01:20:48.073Z,99961.14
2022-08-11T01:23:32.336Z,99962.04
2022-08-11T01:26:38.174Z,99959.72
2022-08-11T01:29:24.903Z,99961.48
2022-08-11T01:32:01.357Z,99958.95
2022-08-11T01:35:06.602Z,99955.70
2022-08-11T01:38:03.142Z,99960.09
2022-08-11T01:40:52.938Z,99957.44
2022-08-11T01:44:05.488Z,99959.86
2022-08-11T01:46:46.811Z,99956.52
2022-08-11T01:50:09.604Z,99952.92
2022-08-11T01:52:54.046Z,99952.41
2022-08-11T01:55:58.089Z,99956.59
2022-08-11T01:58:47.504Z,99956.50
2022-08-11T02:01:27.475Z,99957.30
2022-08-11T02:04:23.094Z,99958.37
2022-08-11T02:06:58.714Z,99960.05
2022-08-11T02:09:42.172Z,99960.64
2022-08-11T02:12:53.614Z,99964.34
2022-08-11T02:15:29.034Z,99959.31
2022-08-11T02:18:23.965Z,99955.08
2022-08-11T02:21:19.015Z,99957.46
2022-08-11T02:24:06.817Z,99957.34
2022-08-11T02:26:42.321Z,99958.27
2022-08-11T02:29:22.077Z,99958.34
2022-08-11T02:32:43.438Z,99961.55
2022-08-11T02:35:27.451Z,99957.03
2022-08-11T02:38:16.808Z,99956.02
2022-08-11T02:40:57.474Z,99954.16
2022-08-11T02:43:50.756Z,99953.25
2022-08-11T02:46:24.581Z,99951.27
2022-08-11T02:49:18.886Z,99944.55
2022-08-11T02:52:17.868Z,99950.13
2022-08-11T02:54:58.868Z,99950.36
2022-08-11T02:57:35.375Z,99955.25
2022-08-11T03:00:07.569Z,99952.33
2022-08-11T03:02:45.900Z,99948.30
2022-08-11T03:05:20.938Z,99952.79
2022-08-11T03:08:22.709Z,99951.63
2022-08-11T03:11:24.735Z,99947.40
2022-08-11T03:14:18.108Z,99947.25
2022-08-11T03:16:55.042Z,99945.48
2022-08-11T03:19:42.534Z,99945.69
2022-08-11T03:22:33.502Z,99946.13
2022-08-11T03:25:08.823Z,99950.77
2022-08-11T03:28:03.466Z,99951.21
2022-08-11T03:30:54.619Z,99950.34
2022-08-11T03:33:47.663Z,99958.61
2022-08-11T03:36:22.057Z,99960.04
2022-08-11T03:39:06.089Z,99963.85
2022-08-11T03:42:04.433Z,99964.01
2022-08-11T03:44:45.113Z,99965.36
2022-08-11T03:47:17.870Z,99966.72
2022-08-11T03:49:57.965Z,99961.16
2022-08-11T03:52:58.147Z,99960.14
2022-08-11T03:55:53.494Z,99959.61
2022-08-11T03:58:41.838Z,99960.40
2022-08-11T04:01:41.124Z,99963.02
2022-08-11T04:04:21.960Z,99965.46
2022-08-11T04:06:53.214Z,99964.67
2022-08-11T04:09:46.326Z,99965.73
2022-08-11T04:12:47.769Z,99964.80
2022-08-11T04:16:12.119Z,99967.93
2022-08-11T04:19:05.170Z,99971.78
2022-08-11T04:21:35.594Z,99973.17
2022-08-11T04:24:36.170Z,99970.61
2022-08-11T04:27:37.222Z,99973.34
2022-08-11T04:30:26.831Z,99975.90
2022-08-11T04:33:19.481Z,99978.14
2022-08-11T04:36:02.621Z,99981.61
2022-08-11T04:39:20.299Z,99981.30
2022-08-11T04:42:31.668Z,99979.88
2022-08-11T04:45:12.045Z,99983.05
2022-08-11T04:48:18.049Z,99983.02
2022-08-11T04:51:42.399Z,99982.17
2022-08-11T04:55:10.629Z,99992.25
2022-08-11T04:58:10.134Z,99992.10
2022-08-11T05:01:12.110Z,99987.04
2022-08-11T05:04:36.385Z,99981.21
2022-08-11T05:07:41.422Z,99987.14
2022-08-11T05:10:34.073Z,99991.14
2022-08-11T05:13:30.508Z,99993.79
2022-08-11T05:16:20.803Z,99989.38
2022-08-11T05:19:12.313Z,99990.31
2022-08-11T05:22:07.649Z,99993.44
2022-08-11T05:25:04.538Z,99993.09
2022-08-11T05:28:00.853Z,100001.02
2022-08-11T05:30:48.566Z,99994.19
2022-08-11T05:33:48.995Z,99993.70
2022-08-11T05:36:50.663Z,99997.77
2022-08-11T05:39:41.911Z,99998.89
2022-08-11T05:42:29.937Z,99997.23
2022-08-11T05:45:58.163Z,99997.82
2022-08-11T05:48:39.868Z,99997.18
2022-08-11T05:51:30.325Z,99999.67
2022-08-11T05:54:28.169Z,100001.86
2022-08-11T05:57:00.053Z,100004.90
2022-08-11T05:59:31.069Z,99996.92
2022-08-11T06:02:03.964Z,100000.87
2022-08-11T06:04:32.533Z,100001.77
2022-08-11T06:07:09.422Z,100003.09
2022-08-11T06:09:40.810Z,100003.89
2022-08-11T06:12:21.857Z,100003.48
2022-08-11T06:15:02.750Z,100005.52
2022-08-11T06:17:38.809Z,100006.33
2022-08-11T06:20:12.381Z,100007.73
2022-08-11T06:22:42.713Z,100003.67
2022-08-11T06:25:10.793Z,100006.77
2022-08-11T06:27:41.185Z,100005.36
2022-08-11T06:30:14.955Z,100002.23
2022-08-11T06:32:47.037Z,100006.56
2022-08-11T06:35:35.641Z,100004.15
2022-08-11T06:38:12.477Z,100006.11
2022-08-11T06:41:18.063Z,100007.76
2022-08-11T06:43:55.948Z,100006.48
2022-08-11T06:46:33.195Z,100006.94
2022-08-11T06:49:05.130Z,100003.05
2022-08-11T06:51:35.119Z,100007.44
2022-08-11T06:54:05.712Z,100003.87
2022-08-11T06:57:26.266Z,100003.31
2022-08-11T07:00:03.934Z,99999.91
2022-08-11T07:02:43.721Z,99995.82
2022-08-11T07:05:37.620Z,99995.55
2022-08-11T07:08:38.470Z,99996.14
2022-08-11T07:11:34.054Z,99994.79
2022-08-11T07:14:21.534Z,99993.96
2022-08-11T07:16:50.567Z,99991.66
2022-08-11T07:19:43.594Z,99992.20
2022-08-11T07:22:30.784Z,99988.67
2022-08-11T07:25:20.801Z,99986.88
2022-08-11T07:28:10.602Z,99986.48
2022-08-11T07:30:40.839Z,99981.22
2022-08-11T07:33:10.739Z,99983.25
2022-08-11T07:35:55.533Z,99986.83
2022-08-11T07:38:43.255Z,99984.42
2022-08-11T07:41:15.040Z,99981.41
2022-08-11T07:43:45.056Z,99980.13
2022-08-11T07:46:31.517Z,99982.39
2022-08-11T07:49:18.319Z,99986.78
2022-08-11T07:52:05.309Z,99985.21
2022-08-11T07:54:34.080Z,99978.48
2022-08-11T07:58:14.001Z,99980.88
2022-08-11T08:00:29.918Z,99987.12
2022-08-11T08:03:18.760Z,99981.92
2022-08-11T08:06:06.736Z,99985.23
2022-08-11T08:09:02.075Z,99984.59
2022-08-11T08:11:48.745Z,99981.91
2022-08-11T08:14:36.273Z,99981.70
2022-08-11T08:17:22.743Z,99990.44
2022-08-11T08:19:51.044Z,99991.54
2022-08-11T08:22:38.107Z,99994.23
2022-08-11T08:25:07.954Z,99988.55
2022-08-11T08:27:36.336Z,99991.35
2022-08-11T08:30:25.246Z,99991.19
2022-08-11T08:32:55.780Z,99992.02
2022-08-11T08:35:24.031Z,99993.64
2022-08-11T08:37:54.615Z,99993.07
2022-08-11T08:40:22.380Z,99992.61
2022-08-11T08:42:58.818Z,99991.52
2022-08-11T08:45:27.410Z,99987.59
2022-08-11T08:48:01.828Z,99984.17
2022-08-11T08:50:52.190Z,99981.09
2022-08-11T08:53:22.825Z,99978.51
2022-08-11T08:55:51.655Z,99981.21
2022-08-11T08:58:20.690Z,99980.21
2022-08-11T09:00:50.783Z,99975.30
2022-08-11T09:06:07.607Z,99979.71
2022-08-11T09:08:35.600Z,99981.36
2022-08-11T09:11:23.581Z,99978.23
2022-08-11T09:14:05.007Z,99978.69
2022-08-11T09:16:36.436Z,99981.89
2022-08-11T09:19:04.530Z,99973.87
2022-08-11T09:21:48.319Z,99976.02
2022-08-11T09:24:37.219Z,99976.61
2022-08-11T09:27:08.650Z,99980.19
2022-08-11T09:29:38.336Z,99977.27
2022-08-11T09:32:07.284Z,99973.58
2022-08-11T09:34:36.834Z,99973.63
2022-08-11T09:37:53.455Z,99972.22
2022-08-11T09:40:32.408Z,99970.33
2022-08-11T09:43:25.394Z,99964.67
2022-08-11T09:45:54.306Z,99961.61
2022-08-11T09:48:26.968Z,99967.89
2022-08-11T09:51:00.225Z,99963.79
2022-08-11T09:53:37.747Z,99963.36
2022-08-11T09:56:34.143Z,99966.04
2022-08-11T09:59:03.294Z,99963.02
2022-08-11T10:01:37.742Z,99960.41
2022-08-11T10:04:22.759Z,99955.06
2022-08-11T10:07:04.643Z,99949.92
2022-08-11T10:09:47.390Z,99951.04
2022-08-11T10:12:33.188Z,99945.29
2022-08-11T10:15:27.052Z,99950.78
2022-08-11T10:18:17.362Z,99947.02
2022-08-11T10:20:50.205Z,99942.80
2022-08-11T10:24:00.876Z,99943.48
2022-08-11T10:26:46.340Z,99931.23
2022-08-11T10:29:36.871Z,99929.64
2022-08-11T10:32:32.244Z,99926.80
2022-08-11T10:35:02.119Z,99927.08
2022-08-11T10:38:07.544Z,99927.42
2022-08-11T10:40:23.794Z,99924.86
2022-08-11T10:43:06.994Z,99917.95
2022-08-11T10:45:58.559Z,99914.27
2022-08-11T10:48:28.267Z,99909.70
2022-08-11T10:51:14.838Z,99912.58
2022-08-11T10:54:05.791Z,99909.52
2022-08-11T10:56:56.311Z,99909.98
2022-08-11T10:59:27.826Z,99914.45
2022-08-11T11:01:55.560Z,99910.25
2022-08-11T11:04:29.144Z,99903.70
2022-08-11T11:07:20.671Z,99897.96
2022-08-11T11:09:51.132Z,99896.20
2022-08-11T11:12:58.639Z,99896.26
2022-08-11T11:15:48.126Z,99895.54
2022-08-11T11:18:20.697Z,99884.82
2022-08-11T11:20:59.233Z,99874.73
2022-08-11T11:23:37.278Z,99876.29
2022-08-11T11:26:27.018Z,99862.64
2022-08-11T11:29:20.535Z,99861.87
2022-08-11T11:32:14.560Z,99860.02
2022-08-11T11:35:09.995Z,99860.36
2022-08-11T11:37:38.557Z,99860.45
2022-08-11T11:40:11.916Z,99852.25
2022-08-11T11:42:40.964Z,99844.73
2022-08-11T11:45:10.202Z,99842.13
2022-08-11T11:47:53.841Z,99841.27
2022-08-11T11:50:24.725Z,99833.52
2022-08-11T11:52:55.354Z,99830.86
2022-08-11T11:55:25.262Z,99833.50
2022-08-11T11:58:15.891Z,99834.93
2022-08-11T12:01:06.119Z,99831.25
2022-08-11T12:03:35.416Z,99823.33
2022-08-11T12:06:03.735Z,99826.00
2022-08-11T12:08:31.674Z,99817.27
2022-08-11T12:11:22.800Z,99817.64
2022-08-11T12:13:53.149Z,99814.80
2022-08-11T12:16:33.612Z,99804.98
2022-08-11T12:19:06.303Z,99811.72
2022-08-11T12:21:35.979Z,99811.40
2022-08-11T12:24:22.990Z,99813.52
2022-08-11T12:27:17.777Z,99808.98
2022-08-11T12:29:54.252Z,99805.42
2022-08-11T12:32:25.424Z,99798.23
2022-08-11T12:34:54.301Z,99800.05
2022-08-11T12:37:25.087Z,99802.41
2022-08-11T12:40:43.803Z,99802.08
2022-08-11T12:43:37.345Z,99800.55
2022-08-11T12:46:19.601Z,99790.79
2022-08-11T12:49:14.730Z,99783.77
2022-08-11T12:52:13.091Z,99776.03
2022-08-11T12:54:57.574Z,99772.61
2022-08-11T12:57:49.765Z,99772.36
2022-08-11T13:00:37.265Z,99771.52
2022-08-11T13:03:26.640Z,99771.93
2022-08-11T13:06:00.410Z,99770.48
2022-08-11T13:08:29.781Z,99768.96
2022-08-11T13:11:17.982Z,99766.52
2022-08-11T13:13:55.784Z,99761.68
2022-08-11T13:16:28.426Z,99753.90
2022-08-11T13:19:01.083Z,99752.54
2022-08-11T13:21:29.716Z,99757.41
2022-08-11T13:24:00.265Z,99763.49
2022-08-11T13:26:41.556Z,99775.23
2022-08-11T13:29:20.768Z,99772.60
2022-08-11T13:31:49.020Z,99775.25
2022-08-11T13:34:18.101Z,99774.94
2022-08-11T13:36:52.819Z,99783.87
2022-08-11T13:39:24.123Z,99803.55
2022-08-11T13:41:56.730Z,99808.71
2022-08-11T13:44:29.779Z,99810.48
2022-08-11T13:47:01.496Z,99810.23
2022-08-11T13:49:31.345Z,99804.96
2022-08-11T13:51:59.404Z,99807.34
2022-08-11T13:54:31.770Z,99802.92
2022-08-11T13:57:09.052Z,99796.52
2022-08-11T13:59:52.483Z,99813.85
2022-08-11T14:02:28.574Z,99814.21
2022-08-11T14:05:11.553Z,99816.22
2022-08-11T14:07:42.786Z,99822.33
2022-08-11T14:10:12.470Z,99832.20
2022-08-11T14:13:01.916Z,99834.69
2022-08-11T14:15:33.215Z,99824.11
2022-08-11T14:18:05.688Z,99814.29
2022-08-11T14:20:55.121Z,99808.27
2022-08-11T14:23:28.659Z,99805.02
2022-08-11T14:26:15.486Z,99804.27
2022-08-11T14:28:44.939Z,99797.91
2022-08-11T14:31:15.354Z,99793.19
2022-08-11T14:34:00.973Z,99795.02
2022-08-11T14:36:32.717Z,99790.77
2022-08-11T14:39:03.875Z,99788.61
2022-08-11T14:42:11.754Z,99790.25
2022-08-11T14:44:59.831Z,99783.02
2022-08-11T14:47:30.982Z,99780.91
2022-08-11T14:50:11.780Z,99777.84
2022-08-11T14:52:48.272Z,99781.24
2022-08-11T14:55:35.274Z,99784.28
2022-08-11T14:58:03.382Z,99785.61
2022-08-11T15:00:32.638Z,99788.37
2022-08-11T15:03:13.440Z,99790.96
2022-08-11T15:06:02.533Z,99791.16
2022-08-11T15:08:52.206Z,99797.55
2022-08-11T15:11:41.395Z,99793.78
2022-08-11T15:14:10.753Z,99803.61
2022-08-11T15:17:00.548Z,99803.18
2022-08-11T15:19:30.105Z,99802.42
2022-08-11T15:22:29.440Z,99817.67
2022-08-11T15:24:59.166Z,99845.58
2022-08-11T15:27:48.532Z,99845.08
2022-08-11T15:30:35.230Z,99839.67
2022-08-11T15:33:26.182Z,99841.35
2022-08-11T15:36:14.536Z,99840.34
2022-08-11T15:38:55.319Z,99835.73
2022-08-11T15:41:56.482Z,99832.20
2022-08-11T15:45:03.131Z,99824.57
2022-08-11T15:47:42.270Z,99820.73
2022-08-11T15:50:16.718Z,99822.63
2022-08-11T15:52:50.050Z,99822.30
2022-08-11T15:55:18.777Z,99812.52
2022-08-11T15:58:06.698Z,99800.40
2022-08-11T16:00:59.199Z,99801.92
2022-08-11T16:04:07.473Z,99795.45
2022-08-11T16:06:54.016Z,99786.05
2022-08-11T16:09:41.340Z,99783.85
2022-08-11T16:12:23.129Z,99779.52
2022-08-11T16:15:11.766Z,99771.95
2022-08-11T16:17:54.244Z,99768.49
2022-08-11T16:20:24.629Z,99766.48
2022-08-11T16:22:57.231Z,99771.05
2022-08-11T16:25:58.042Z,99768.08
2022-08-11T16:28:24.564Z,99759.64
2022-08-11T16:30:53.481Z,99751.46
2022-08-11T16:33:50.101Z,99747.99
2022-08-11T16:36:32.209Z,99748.09
2022-08-11T16:39:00.211Z,99754.77
2022-08-11T16:41:50.064Z,99755.73
2022-08-11T16:44:38.396Z,99757.75
2022-08-11T16:47:08.805Z,99750.09
2022-08-11T16:49:39.704Z,99743.83
2022-08-11T16:52:12.133Z,99740.98
2022-08-11T16:54:44.473Z,99739.57
2022-08-11T16:57:35.326Z,99743.92
2022-08-11T17:00:07.267Z,99747.16
2022-08-11T17:03:01.794Z,99743.67
2022-08-11T17:05:54.155Z,99742.80
2022-08-11T17:08:56.757Z,99739.73
2022-08-11T17:11:49.880Z,99735.48
2022-08-11T17:14:35.262Z,99733.77
2022-08-11T17:17:07.719Z,99733.98
2022-08-11T17:20:41.829Z,99735.52
2022-08-11T17:22:48.081Z,99735.14
2022-08-11T17:25:16.378Z,99733.52
2022-08-11T17:27:45.686Z,99735.97
2022-08-11T17:30:14.928Z,99735.38
2022-08-11T17:33:08.577Z,99733.58
2022-08-11T17:35:40.524Z,99733.40
2022-08-11T17:38:20.997Z,99731.53
2022-08-11T17:41:18.570Z,99731.59
2022-08-11T17:44:11.840Z,99727.80
2022-08-11T17:47:03.581Z,99730.67
2022-08-11T17:49:37.854Z,99730.39
2022-08-11T17:52:25.891Z,99733.48
2022-08-11T17:55:13.472Z,99730.17
2022-08-11T17:58:00.586Z,99732.21
2022-08-11T18:00:28.459Z,99730.73
2022-08-11T18:03:16.467Z,99733.67
2022-08-11T18:05:46.433Z,99734.20
2022-08-11T18:08:33.565Z,99731.31
2022-08-11T18:12:06.264Z,99729.86
2022-08-11T18:14:29.289Z,99732.59
2022-08-11T18:17:16.017Z,99736.30
2022-08-11T18:20:03.058Z,99735.88
2022-08-11T18:22:55.358Z,99733.75
2022-08-11T18:25:45.591Z,99733.48
2022-08-11T18:28:34.425Z,99734.11
2022-08-11T18:31:21.885Z,99732.56
2022-08-11T18:34:13.002Z,99737.73
2022-08-11T18:37:04.805Z,99739.48
2022-08-11T18:39:55.987Z,99739.59
2022-08-11T18:42:44.286Z,99743.48
2022-08-11T18:45:44.565Z,99748.02
2022-08-11T18:48:37.223Z,99747.23
2022-08-11T18:51:31.098Z,99750.20
2022-08-11T18:54:26.978Z,99748.56
2022-08-11T18:57:15.320Z,99756.70
2022-08-11T19:00:02.901Z,99757.02
2022-08-11T19:02:52.856Z,99755.45
2022-08-11T19:06:08.396Z,99757.41
2022-08-11T19:08:50.559Z,99759.52
2022-08-11T19:11:42.834Z,99766.81
2022-08-11T19:14:33.538Z,99776.54
2022-08-11T19:17:44.172Z,99774.19
2022-08-11T19:20:31.971Z,99774.20
2022-08-11T19:23:18.626Z,99770.29
2022-08-11T19:26:05.536Z,99768.20
2022-08-11T19:28:53.920Z,99770.84
2022-08-11T19:31:44.728Z,99775.77
2022-08-11T19:34:36.773Z,99773.58
2022-08-11T19:37:25.550Z,99770.19
2022-08-11T19:40:13.813Z,99772.69
2022-08-11T19:43:01.722Z,99772.31
2022-08-11T19:45:52.831Z,99771.34
2022-08-11T19:48:41.074Z,99770.80
2022-08-11T19:51:30.109Z,99775.08
2022-08-11T19:54:17.079Z,99779.83
2022-08-11T19:57:04.379Z,99775.84
2022-08-11T19:59:51.406Z,99770.63
2022-08-11T20:02:38.221Z,99772.00
2022-08-11T20:05:25.881Z,99764.14
2022-08-11T20:08:15.623Z,99762.04
2022-08-11T20:11:06.081Z,99765.19
2022-08-11T20:13:53.576Z,99772.96
2022-08-11T20:16:41.457Z,99771.20
2022-08-11T20:19:55.514Z,99773.23
2022-08-11T20:22:36.307Z,99779.16
2022-08-11T20:25:24.291Z,99780.86
2022-08-11T20:28:11.291Z,99775.25
2022-08-11T20:30:58.127Z,99773.13
2022-08-11T20:33:44.508Z,99773.32
2022-08-11T20:36:32.078Z,99780.35
2022-08-11T20:39:18.790Z,99777.52
2022-08-11T20:42:06.942Z,99775.55
2022-08-11T20:44:55.772Z,99777.42
2022-08-11T20:47:59.655Z,99781.52
2022-08-11T20:50:48.081Z,99782.55
2022-08-11T20:53:39.288Z,99782.92
2022-08-11T20:56:28.624Z,99777.20
2022-08-11T20:59:18.989Z,99770.19
2022-08-11T21:05:19.368Z,99772.20
2022-08-11T21:08:13.296Z,99775.39
2022-08-11T21:10:59.849Z,99775.84
2022-08-11T21:13:51.460Z,99778.98
2022-08-11T21:16:47.429Z,99781.05
2022-08-11T21:20:06.598Z,99777.38
2022-08-11T21:23:05.446Z,99771.80
2022-08-11T21:25:59.391Z,99774.73
2022-08-11T21:28:47.359Z,99777.19
2022-08-11T21:31:34.544Z,99775.98
2022-08-11T21:34:21.674Z,99778.15
2022-08-11T21:37:08.492Z,99772.06
2022-08-11T21:39:55.424Z,99772.83
2022-08-11T21:42:43.106Z,99774.91
2022-08-11T21:45:31.941Z,99779.75
2022-08-11T21:48:19.666Z,99782.76
2022-08-11T21:51:06.016Z,99785.45
2022-08-11T21:53:52.644Z,99783.83
2022-08-11T21:56:41.788Z,99785.57
2022-08-11T21:59:30.230Z,99780.45
2022-08-11T22:02:17.139Z,99778.00
2022-08-11T22:05:03.677Z,99776.56
2022-08-11T22:07:50.057Z,99770.70
2022-08-11T22:10:42.176Z,99772.59
2022-08-11T22:13:30.996Z,99772.51
2022-08-11T22:16:18.576Z,99764.98
2022-08-11T22:19:09.120Z,99772.99
2022-08-11T22:22:03.472Z,99776.88
2022-08-11T22:24:52.027Z,99776.23
2022-08-11T22:27:40.314Z,99772.84
2022-08-11T22:30:29.454Z,99772.49
2022-08-11T22:33:20.925Z,99769.61
2022-08-11T22:36:14.534Z,99772.28
2022-08-11T22:39:01.415Z,99771.67
2022-08-11T22:41:47.902Z,99766.48
2022-08-11T22:44:34.202Z,99762.06
2022-08-11T22:47:22.622Z,99761.02
2022-08-11T22:50:16.312Z,99763.56
2022-08-11T22:53:03.729Z,99759.52
2022-08-11T22:55:50.885Z,99760.66
2022-08-11T22:58:39.331Z,99757.39
2022-08-11T23:01:25.716Z,99754.98
2022-08-11T23:04:12.729Z,99764.50
2022-08-11T23:07:01.736Z,99758.86
2022-08-11T23:09:48.559Z,99753.42
2022-08-11T23:12:35.262Z,99752.34
2022-08-11T23:15:22.588Z,99759.14
2022-08-11T23:18:09.404Z,99758.61
2022-08-11T23:20:56.886Z,99758.69
2022-08-11T23:23:46.302Z,99754.73
2022-08-11T23:26:33.214Z,99751.83
2022-08-11T23:29:20.086Z,99754.77
2022-08-11T23:32:09.054Z,99751.27
2022-08-11T23:35:37.295Z,99754.54
2022-08-11T23:38:06.017Z,99750.64
2022-08-11T23:40:52.554Z,99752.55
2022-08-11T23:43:40.481Z,99751.03
2022-08-11T23:46:27.395Z,99748.36
2022-08-11T23:49:23.661Z,99753.45
2022-08-11T23:52:11.005Z,99746.45
2022-08-11T23:54:58.545Z,99744.36
2022-08-11T23:57:48.725Z,99745.65
